Flight Track Log - Related Links

Times and Time Zones

All times are in EDT time to prevent confusion due to time zone crossing. See the LXJ342 flight status page for this flight to view local times or setup timezone preferences in your user account.

Time Position Orientation Groundspeed Altitude Reporting Facility
EDT Latitude Longitude Course Direction KTS MPH feet Rate Location/Type
Tue 11:07:00 AM 44.6030 -69.1510 221° Southwest  Level FlightAware Approximate
Tue 11:08:00 AM 44.5490 -69.2158 221° Southwest  Level FlightAware Approximate
Tue 11:09:00 AM 44.4949 -69.2805 221° Southwest  Level FlightAware Approximate
Tue 11:10:00 AM 44.4409 -69.3450 220° Southwest  Level FlightAware Approximate
Tue 11:11:00 AM 44.3868 -69.4094 220° Southwest  Level FlightAware Approximate
Tue 11:12:00 AM 44.3325 -69.4735 220° Southwest  Level FlightAware Approximate
Tue 11:13:00 AM 44.2780 -69.5373 220° Southwest  Level FlightAware Approximate
Tue 11:14:00 AM 44.2235 -69.6009 220° Southwest  Level FlightAware Approximate
Tue 11:15:00 AM 44.1690 -69.6644 220° Southwest  Level FlightAware Approximate
Tue 11:16:00 AM 44.1145 -69.7279 220° Southwest  Level FlightAware Approximate
Tue 11:17:00 AM 44.0600 -69.7912 220° Southwest  Level FlightAware Approximate
Tue 11:18:00 AM 44.0057 -69.8549 220° Southwest  Level FlightAware Approximate
Tue 11:19:00 AM 43.9513 -69.9185 220° Southwest  Level FlightAware Approximate
Tue 11:20:00 AM 43.8970 -69.9819 220° Southwest  Level FlightAware Approximate
Tue 11:21:00 AM 43.8425 -70.0453 220° Southwest  Level FlightAware Approximate
Tue 11:22:00 AM 43.7881 -70.1085 220° Southwest  Level FlightAware Approximate
Tue 11:23:00 AM 43.7486 -70.1848 216° Southwest  Level FlightAware Approximate
Tue 11:24:00 AM 43.6910 -70.2423 216° Southwest  Level FlightAware Approximate
Tue 11:25:00 AM 43.6334 -70.2999 216° Southwest  Level FlightAware Approximate
Tue 11:26:00 AM 43.6456 -70.3086 216° Southwest  Level Estimated
Tue 11:27:00 AM 43.6456 -70.3086 216° Southwest  Level Estimated
Tue 11:28:00 AM 43.6456 -70.3086 216° Southwest  Level Estimated
Tue 11:29:00 AM 43.6456 -70.3086 216° Southwest  Level Estimated
Tue 11:30:00 AM 43.6456 -70.3086 216° Southwest  Level Estimated
Tue 11:31:00 AM 43.6456 -70.3086 216° Southwest  Level Estimated
Tue 11:32:00 AM 43.6456 -70.3086 216° Southwest  Level Estimated
Tue 11:33:00 AM 43.6456 -70.3086 216° Southwest  Level Estimated
Tue 11:34:00 AM 43.6456 -70.3086 216° Southwest  Level Estimated
Tue 11:35:00 AM 43.6456 -70.3086 216° Southwest  Level Estimated
Tue 11:36:00 AM 43.6456 -70.3086 216° Southwest  Level Estimated

Login

Don't have an account? Register now (free) for customized features, flight alerts, and more!